Terminal Aerodrome Forecast
Issued by NWS

Home | Current Version | Previous Version | Text Only | Print | Product List | Glossary On
Versions: 1 2 3 4 5 6 7 8 9 10 11 12 13 14 15 16 17 18 19 20 21 22 23
367
FTUS44 KBMX 182023 AAC
TAFMGM
TAF AMD
KMGM 182023Z 1820/1918 11007KT P6SM SCT090
     FM190200 09002KT P6SM SCT040
     FM190900 13003KT 4SM BR OVC010
     FM191500 14007KT P6SM SCT025=

USA.gov is the U.S. government's official web portal to all federal, state and local government web resources and services.